sensor_id;sensor_type;location;lat;lon;timestamp;P1;durP1;ratioP1;P2;durP2;ratioP2
35909;SDS011;22004;49.120;-0.200;2023-05-10T00:02:24;7.57;;;1.20;;
35909;SDS011;22004;49.120;-0.200;2023-05-10T00:04:49;5.13;;;1.10;;
35909;SDS011;22004;49.120;-0.200;2023-05-10T00:07:15;6.43;;;1.52;;
35909;SDS011;22004;49.120;-0.200;2023-05-10T00:09:42;3.28;;;0.95;;
35909;SDS011;22004;49.120;-0.200;2023-05-10T00:12:08;4.55;;;1.13;;
35909;SDS011;22004;49.120;-0.200;2023-05-10T00:14:33;5.22;;;1.05;;
35909;SDS011;22004;49.120;-0.200;2023-05-10T00:16:58;7.35;;;1.23;;
35909;SDS011;22004;49.120;-0.200;2023-05-10T00:19:24;5.25;;;1.00;;
35909;SDS011;22004;49.120;-0.200;2023-05-10T00:21:49;6.38;;;1.20;;
35909;SDS011;22004;49.120;-0.200;2023-05-10T00:24:14;5.47;;;1.20;;
35909;SDS011;22004;49.120;-0.200;2023-05-10T00:26:40;3.50;;;0.85;;
35909;SDS011;22004;49.120;-0.200;2023-05-10T00:29:07;5.45;;;1.27;;
35909;SDS011;22004;49.120;-0.200;2023-05-10T00:31:32;4.35;;;1.50;;
35909;SDS011;22004;49.120;-0.200;2023-05-10T00:33:57;2.55;;;1.00;;
35909;SDS011;22004;49.120;-0.200;2023-05-10T00:36:23;3.70;;;0.90;;
35909;SDS011;22004;49.120;-0.200;2023-05-10T00:38:48;2.40;;;1.15;;
35909;SDS011;22004;49.120;-0.200;2023-05-10T00:41:13;7.53;;;1.30;;
35909;SDS011;22004;49.120;-0.200;2023-05-10T00:43:39;3.85;;;0.90;;
35909;SDS011;22004;49.120;-0.200;2023-05-10T00:46:04;6.05;;;1.17;;
35909;SDS011;22004;49.120;-0.200;2023-05-10T00:48:30;6.57;;;1.10;;
35909;SDS011;22004;49.120;-0.200;2023-05-10T00:50:55;3.22;;;1.38;;
35909;SDS011;22004;49.120;-0.200;2023-05-10T00:53:21;7.80;;;1.63;;
35909;SDS011;22004;49.120;-0.200;2023-05-10T00:55:46;5.07;;;1.27;;
35909;SDS011;22004;49.120;-0.200;2023-05-10T00:58:12;4.30;;;1.20;;
35909;SDS011;22004;49.120;-0.200;2023-05-10T01:00:37;4.15;;;1.13;;
35909;SDS011;22004;49.120;-0.200;2023-05-10T01:03:06;4.32;;;1.30;;
35909;SDS011;22004;49.120;-0.200;2023-05-10T01:05:31;8.73;;;1.33;;
35909;SDS011;22004;49.120;-0.200;2023-05-10T01:07:56;4.68;;;1.30;;
35909;SDS011;22004;49.120;-0.200;2023-05-10T01:10:22;5.53;;;1.30;;
35909;SDS011;22004;49.120;-0.200;2023-05-10T01:12:47;13.07;;;2.60;;
35909;SDS011;22004;49.120;-0.200;2023-05-10T01:15:13;8.07;;;1.90;;
35909;SDS011;22004;49.120;-0.200;2023-05-10T01:17:41;11.40;;;2.30;;
35909;SDS011;22004;49.120;-0.200;2023-05-10T01:20:09;8.15;;;1.70;;
35909;SDS011;22004;49.120;-0.200;2023-05-10T01:34:16;8.15;;;2.33;;
35909;SDS011;22004;49.120;-0.200;2023-05-10T01:36:55;12.07;;;1.95;;
35909;SDS011;22004;49.120;-0.200;2023-05-10T01:42:16;9.68;;;2.45;;
35909;SDS011;22004;49.120;-0.200;2023-05-10T01:44:53;8.23;;;1.52;;
35909;SDS011;22004;49.120;-0.200;2023-05-10T01:47:33;9.48;;;2.22;;
35909;SDS011;22004;49.120;-0.200;2023-05-10T01:50:04;10.55;;;1.95;;
35909;SDS011;22004;49.120;-0.200;2023-05-10T01:52:38;9.40;;;1.90;;
35909;SDS011;22004;49.120;-0.200;2023-05-10T01:55:14;9.65;;;1.55;;
35909;SDS011;22004;49.120;-0.200;2023-05-10T01:57:42;13.18;;;2.25;;
35909;SDS011;22004;49.120;-0.200;2023-05-10T02:00:09;15.43;;;2.63;;
35909;SDS011;22004;49.120;-0.200;2023-05-10T02:02:37;17.13;;;2.97;;
35909;SDS011;22004;49.120;-0.200;2023-05-10T02:05:07;13.27;;;2.15;;
35909;SDS011;22004;49.120;-0.200;2023-05-10T02:07:34;11.38;;;2.00;;
35909;SDS011;22004;49.120;-0.200;2023-05-10T02:10:01;12.82;;;2.30;;
35909;SDS011;22004;49.120;-0.200;2023-05-10T02:12:29;12.02;;;2.42;;
35909;SDS011;22004;49.120;-0.200;2023-05-10T02:14:57;10.13;;;2.40;;
35909;SDS011;22004;49.120;-0.200;2023-05-10T02:17:27;12.30;;;2.47;;
35909;SDS011;22004;49.120;-0.200;2023-05-10T02:19:53;12.27;;;2.53;;
35909;SDS011;22004;49.120;-0.200;2023-05-10T02:22:21;10.60;;;2.50;;
35909;SDS011;22004;49.120;-0.200;2023-05-10T02:24:48;14.43;;;2.20;;
35909;SDS011;22004;49.120;-0.200;2023-05-10T02:27:15;16.20;;;2.92;;
35909;SDS011;22004;49.120;-0.200;2023-05-10T02:29:42;16.88;;;2.50;;
35909;SDS011;22004;49.120;-0.200;2023-05-10T02:32:09;20.10;;;4.03;;
35909;SDS011;22004;49.120;-0.200;2023-05-10T02:34:36;25.80;;;3.63;;
35909;SDS011;22004;49.120;-0.200;2023-05-10T02:37:02;13.50;;;2.58;;
35909;SDS011;22004;49.120;-0.200;2023-05-10T02:39:27;15.05;;;2.33;;
35909;SDS011;22004;49.120;-0.200;2023-05-10T02:41:54;18.30;;;3.05;;
35909;SDS011;22004;49.120;-0.200;2023-05-10T02:44:20;23.77;;;3.42;;
35909;SDS011;22004;49.120;-0.200;2023-05-10T02:46:48;12.82;;;2.22;;
35909;SDS011;22004;49.120;-0.200;2023-05-10T02:49:13;16.83;;;3.00;;
35909;SDS011;22004;49.120;-0.200;2023-05-10T02:51:44;23.75;;;3.30;;
35909;SDS011;22004;49.120;-0.200;2023-05-10T02:54:24;21.92;;;2.85;;
35909;SDS011;22004;49.120;-0.200;2023-05-10T02:56:56;19.58;;;3.50;;
35909;SDS011;22004;49.120;-0.200;2023-05-10T02:59:24;24.90;;;4.00;;
35909;SDS011;22004;49.120;-0.200;2023-05-10T03:01:49;20.52;;;3.10;;
35909;SDS011;22004;49.120;-0.200;2023-05-10T03:04:15;22.80;;;4.03;;
35909;SDS011;22004;49.120;-0.200;2023-05-10T03:06:40;23.15;;;3.67;;
35909;SDS011;22004;49.120;-0.200;2023-05-10T03:09:06;25.55;;;4.03;;
35909;SDS011;22004;49.120;-0.200;2023-05-10T03:16:46;27.63;;;3.42;;
35909;SDS011;22004;49.120;-0.200;2023-05-10T03:19:26;29.75;;;4.00;;
35909;SDS011;22004;49.120;-0.200;2023-05-10T03:21:55;28.65;;;4.10;;
35909;SDS011;22004;49.120;-0.200;2023-05-10T03:24:24;23.40;;;3.65;;
35909;SDS011;22004;49.120;-0.200;2023-05-10T03:26:53;29.48;;;4.55;;
35909;SDS011;22004;49.120;-0.200;2023-05-10T03:29:21;27.52;;;4.20;;
35909;SDS011;22004;49.120;-0.200;2023-05-10T03:31:50;26.50;;;4.22;;
35909;SDS011;22004;49.120;-0.200;2023-05-10T03:34:15;29.27;;;4.60;;
35909;SDS011;22004;49.120;-0.200;2023-05-10T03:36:42;23.25;;;4.05;;
35909;SDS011;22004;49.120;-0.200;2023-05-10T03:39:07;28.13;;;5.65;;
35909;SDS011;22004;49.120;-0.200;2023-05-10T03:41:33;19.30;;;3.20;;
35909;SDS011;22004;49.120;-0.200;2023-05-10T03:43:59;34.45;;;5.50;;
35909;SDS011;22004;49.120;-0.200;2023-05-10T03:46:24;25.98;;;4.00;;
35909;SDS011;22004;49.120;-0.200;2023-05-10T03:48:49;33.60;;;4.60;;
35909;SDS011;22004;49.120;-0.200;2023-05-10T03:51:15;26.92;;;4.38;;
35909;SDS011;22004;49.120;-0.200;2023-05-10T03:53:40;27.83;;;4.45;;
35909;SDS011;22004;49.120;-0.200;2023-05-10T03:56:05;32.65;;;5.28;;
35909;SDS011;22004;49.120;-0.200;2023-05-10T03:58:31;25.83;;;4.22;;
35909;SDS011;22004;49.120;-0.200;2023-05-10T04:00:56;33.35;;;4.13;;
35909;SDS011;22004;49.120;-0.200;2023-05-10T04:03:21;30.60;;;4.20;;
35909;SDS011;22004;49.120;-0.200;2023-05-10T04:05:47;25.08;;;3.97;;
35909;SDS011;22004;49.120;-0.200;2023-05-10T04:08:13;21.77;;;4.03;;
35909;SDS011;22004;49.120;-0.200;2023-05-10T04:10:39;28.42;;;4.05;;
35909;SDS011;22004;49.120;-0.200;2023-05-10T04:13:05;33.10;;;4.50;;
35909;SDS011;22004;49.120;-0.200;2023-05-10T04:15:30;31.30;;;5.13;;
35909;SDS011;22004;49.120;-0.200;2023-05-10T04:17:56;27.70;;;4.25;;
35909;SDS011;22004;49.120;-0.200;2023-05-10T04:20:21;27.73;;;4.13;;
35909;SDS011;22004;49.120;-0.200;2023-05-10T04:22:46;26.98;;;4.65;;
35909;SDS011;22004;49.120;-0.200;2023-05-10T04:25:12;24.20;;;4.03;;
35909;SDS011;22004;49.120;-0.200;2023-05-10T04:27:37;32.20;;;4.63;;
35909;SDS011;22004;49.120;-0.200;2023-05-10T04:30:02;32.28;;;4.35;;
35909;SDS011;22004;49.120;-0.200;2023-05-10T04:32:28;25.58;;;4.30;;
35909;SDS011;22004;49.120;-0.200;2023-05-10T04:34:54;25.63;;;4.40;;
35909;SDS011;22004;49.120;-0.200;2023-05-10T04:37:19;31.80;;;4.93;;
35909;SDS011;22004;49.120;-0.200;2023-05-10T04:39:46;29.67;;;5.00;;
35909;SDS011;22004;49.120;-0.200;2023-05-10T04:42:11;32.78;;;4.70;;
35909;SDS011;22004;49.120;-0.200;2023-05-10T04:44:37;25.08;;;4.25;;
35909;SDS011;22004;49.120;-0.200;2023-05-10T04:47:02;29.45;;;3.85;;
35909;SDS011;22004;49.120;-0.200;2023-05-10T04:49:28;27.92;;;5.13;;
35909;SDS011;22004;49.120;-0.200;2023-05-10T04:51:54;23.27;;;4.00;;
35909;SDS011;22004;49.120;-0.200;2023-05-10T04:54:20;31.98;;;5.10;;
35909;SDS011;22004;49.120;-0.200;2023-05-10T04:56:45;25.45;;;4.57;;
35909;SDS011;22004;49.120;-0.200;2023-05-10T04:59:10;26.13;;;4.22;;
35909;SDS011;22004;49.120;-0.200;2023-05-10T05:01:36;26.98;;;4.82;;
35909;SDS011;22004;49.120;-0.200;2023-05-10T05:04:01;26.30;;;4.45;;
35909;SDS011;22004;49.120;-0.200;2023-05-10T05:06:26;33.88;;;4.93;;
35909;SDS011;22004;49.120;-0.200;2023-05-10T05:08:52;26.73;;;4.50;;
35909;SDS011;22004;49.120;-0.200;2023-05-10T05:11:17;28.35;;;4.50;;
35909;SDS011;22004;49.120;-0.200;2023-05-10T05:13:43;26.17;;;4.28;;
35909;SDS011;22004;49.120;-0.200;2023-05-10T05:16:08;28.67;;;4.90;;
35909;SDS011;22004;49.120;-0.200;2023-05-10T05:18:34;26.90;;;4.38;;
35909;SDS011;22004;49.120;-0.200;2023-05-10T05:20:59;30.80;;;4.68;;
35909;SDS011;22004;49.120;-0.200;2023-05-10T05:23:24;28.58;;;4.78;;
35909;SDS011;22004;49.120;-0.200;2023-05-10T05:25:53;25.60;;;4.03;;
35909;SDS011;22004;49.120;-0.200;2023-05-10T05:28:20;26.80;;;4.10;;
35909;SDS011;22004;49.120;-0.200;2023-05-10T05:30:45;26.92;;;4.40;;
35909;SDS011;22004;49.120;-0.200;2023-05-10T05:33:12;27.75;;;4.72;;
35909;SDS011;22004;49.120;-0.200;2023-05-10T05:35:38;27.13;;;4.43;;
35909;SDS011;22004;49.120;-0.200;2023-05-10T05:38:04;26.63;;;3.80;;
35909;SDS011;22004;49.120;-0.200;2023-05-10T05:40:29;20.67;;;4.13;;
35909;SDS011;22004;49.120;-0.200;2023-05-10T05:42:54;24.25;;;3.80;;
35909;SDS011;22004;49.120;-0.200;2023-05-10T05:45:20;25.33;;;4.22;;
35909;SDS011;22004;49.120;-0.200;2023-05-10T05:47:46;29.73;;;4.35;;
35909;SDS011;22004;49.120;-0.200;2023-05-10T05:50:11;24.60;;;4.35;;
35909;SDS011;22004;49.120;-0.200;2023-05-10T05:52:36;21.75;;;3.95;;
35909;SDS011;22004;49.120;-0.200;2023-05-10T05:55:02;25.83;;;4.03;;
35909;SDS011;22004;49.120;-0.200;2023-05-10T05:57:27;25.45;;;4.38;;
35909;SDS011;22004;49.120;-0.200;2023-05-10T05:59:53;25.10;;;4.07;;
35909;SDS011;22004;49.120;-0.200;2023-05-10T06:02:18;31.10;;;5.57;;
35909;SDS011;22004;49.120;-0.200;2023-05-10T06:04:43;26.92;;;3.78;;
35909;SDS011;22004;49.120;-0.200;2023-05-10T06:07:09;20.63;;;3.85;;
35909;SDS011;22004;49.120;-0.200;2023-05-10T06:09:35;29.45;;;4.90;;
35909;SDS011;22004;49.120;-0.200;2023-05-10T06:12:00;32.13;;;4.43;;
35909;SDS011;22004;49.120;-0.200;2023-05-10T06:14:26;26.08;;;4.13;;
35909;SDS011;22004;49.120;-0.200;2023-05-10T06:16:52;27.60;;;5.00;;
35909;SDS011;22004;49.120;-0.200;2023-05-10T06:19:17;34.38;;;4.57;;
35909;SDS011;22004;49.120;-0.200;2023-05-10T06:21:43;27.35;;;5.03;;
35909;SDS011;22004;49.120;-0.200;2023-05-10T06:24:08;27.90;;;5.00;;
35909;SDS011;22004;49.120;-0.200;2023-05-10T06:26:33;24.10;;;3.88;;
35909;SDS011;22004;49.120;-0.200;2023-05-10T06:28:59;24.13;;;5.43;;
35909;SDS011;22004;49.120;-0.200;2023-05-10T06:31:24;29.48;;;4.95;;
35909;SDS011;22004;49.120;-0.200;2023-05-10T06:33:49;27.60;;;4.50;;
35909;SDS011;22004;49.120;-0.200;2023-05-10T06:36:15;36.90;;;5.28;;
35909;SDS011;22004;49.120;-0.200;2023-05-10T06:38:41;30.98;;;4.63;;
35909;SDS011;22004;49.120;-0.200;2023-05-10T06:41:06;28.58;;;5.07;;
35909;SDS011;22004;49.120;-0.200;2023-05-10T06:43:31;28.05;;;4.82;;
35909;SDS011;22004;49.120;-0.200;2023-05-10T06:45:57;29.80;;;4.63;;
35909;SDS011;22004;49.120;-0.200;2023-05-10T06:48:22;29.33;;;4.70;;
35909;SDS011;22004;49.120;-0.200;2023-05-10T06:50:48;25.45;;;4.88;;
35909;SDS011;22004;49.120;-0.200;2023-05-10T06:53:13;28.05;;;4.72;;
35909;SDS011;22004;49.120;-0.200;2023-05-10T06:55:38;28.65;;;4.68;;
35909;SDS011;22004;49.120;-0.200;2023-05-10T06:58:04;32.13;;;5.18;;
35909;SDS011;22004;49.120;-0.200;2023-05-10T07:00:30;21.05;;;3.83;;
35909;SDS011;22004;49.120;-0.200;2023-05-10T07:02:55;26.45;;;4.22;;
35909;SDS011;22004;49.120;-0.200;2023-05-10T07:05:20;27.08;;;5.47;;
35909;SDS011;22004;49.120;-0.200;2023-05-10T07:07:46;32.65;;;4.10;;
35909;SDS011;22004;49.120;-0.200;2023-05-10T07:10:12;27.40;;;4.60;;
35909;SDS011;22004;49.120;-0.200;2023-05-10T07:12:38;27.17;;;4.25;;
35909;SDS011;22004;49.120;-0.200;2023-05-10T07:15:04;27.30;;;4.45;;
35909;SDS011;22004;49.120;-0.200;2023-05-10T07:17:29;25.77;;;4.95;;
35909;SDS011;22004;49.120;-0.200;2023-05-10T07:19:55;21.52;;;3.88;;
35909;SDS011;22004;49.120;-0.200;2023-05-10T07:22:20;26.02;;;4.38;;
35909;SDS011;22004;49.120;-0.200;2023-05-10T07:24:46;22.88;;;3.42;;
35909;SDS011;22004;49.120;-0.200;2023-05-10T07:27:11;22.15;;;5.22;;
35909;SDS011;22004;49.120;-0.200;2023-05-10T07:29:37;23.83;;;3.58;;
35909;SDS011;22004;49.120;-0.200;2023-05-10T07:32:03;26.52;;;4.38;;
35909;SDS011;22004;49.120;-0.200;2023-05-10T07:34:29;23.52;;;4.15;;
35909;SDS011;22004;49.120;-0.200;2023-05-10T07:36:56;31.38;;;4.97;;
35909;SDS011;22004;49.120;-0.200;2023-05-10T07:39:23;23.13;;;5.13;;
35909;SDS011;22004;49.120;-0.200;2023-05-10T07:41:48;28.00;;;4.25;;
35909;SDS011;22004;49.120;-0.200;2023-05-10T07:44:13;29.83;;;4.97;;
35909;SDS011;22004;49.120;-0.200;2023-05-10T07:46:39;23.67;;;3.55;;
35909;SDS011;22004;49.120;-0.200;2023-05-10T07:49:04;21.52;;;4.28;;
35909;SDS011;22004;49.120;-0.200;2023-05-10T07:51:29;26.85;;;4.97;;
35909;SDS011;22004;49.120;-0.200;2023-05-10T07:53:55;27.45;;;3.90;;
35909;SDS011;22004;49.120;-0.200;2023-05-10T07:56:27;23.20;;;4.28;;
35909;SDS011;22004;49.120;-0.200;2023-05-10T07:59:00;26.50;;;4.05;;
35909;SDS011;22004;49.120;-0.200;2023-05-10T08:01:29;26.13;;;3.97;;
35909;SDS011;22004;49.120;-0.200;2023-05-10T08:03:56;37.17;;;5.38;;
35909;SDS011;22004;49.120;-0.200;2023-05-10T08:06:22;27.42;;;4.30;;
35909;SDS011;22004;49.120;-0.200;2023-05-10T08:08:47;21.10;;;3.70;;
35909;SDS011;22004;49.120;-0.200;2023-05-10T08:11:16;28.15;;;3.58;;
35909;SDS011;22004;49.120;-0.200;2023-05-10T08:13:42;22.83;;;4.28;;
35909;SDS011;22004;49.120;-0.200;2023-05-10T08:16:08;35.80;;;4.57;;
35909;SDS011;22004;49.120;-0.200;2023-05-10T08:18:33;21.50;;;4.00;;
35909;SDS011;22004;49.120;-0.200;2023-05-10T08:20:58;18.90;;;3.42;;
35909;SDS011;22004;49.120;-0.200;2023-05-10T08:23:23;27.88;;;5.60;;
35909;SDS011;22004;49.120;-0.200;2023-05-10T08:25:49;25.25;;;3.65;;
35909;SDS011;22004;49.120;-0.200;2023-05-10T08:28:14;29.85;;;4.38;;
35909;SDS011;22004;49.120;-0.200;2023-05-10T08:30:40;21.80;;;3.90;;
35909;SDS011;22004;49.120;-0.200;2023-05-10T08:33:05;22.42;;;3.55;;
35909;SDS011;22004;49.120;-0.200;2023-05-10T08:35:30;26.42;;;3.97;;
35909;SDS011;22004;49.120;-0.200;2023-05-10T08:37:56;30.25;;;4.53;;
35909;SDS011;22004;49.120;-0.200;2023-05-10T08:40:21;24.85;;;3.95;;
35909;SDS011;22004;49.120;-0.200;2023-05-10T08:42:53;20.73;;;3.33;;
35909;SDS011;22004;49.120;-0.200;2023-05-10T08:45:23;30.63;;;6.15;;
35909;SDS011;22004;49.120;-0.200;2023-05-10T08:47:51;22.83;;;4.10;;
35909;SDS011;22004;49.120;-0.200;2023-05-10T08:50:18;26.20;;;4.00;;
35909;SDS011;22004;49.120;-0.200;2023-05-10T08:52:45;18.17;;;2.83;;
35909;SDS011;22004;49.120;-0.200;2023-05-10T08:55:13;20.38;;;3.97;;
35909;SDS011;22004;49.120;-0.200;2023-05-10T08:57:39;17.90;;;3.00;;
35909;SDS011;22004;49.120;-0.200;2023-05-10T09:00:05;22.75;;;4.20;;
35909;SDS011;22004;49.120;-0.200;2023-05-10T09:02:31;30.05;;;3.55;;
35909;SDS011;22004;49.120;-0.200;2023-05-10T09:04:57;22.63;;;3.40;;
35909;SDS011;22004;49.120;-0.200;2023-05-10T09:07:23;27.45;;;3.90;;
35909;SDS011;22004;49.120;-0.200;2023-05-10T09:09:48;28.40;;;4.93;;
35909;SDS011;22004;49.120;-0.200;2023-05-10T09:12:13;18.92;;;3.03;;
35909;SDS011;22004;49.120;-0.200;2023-05-10T09:14:40;22.67;;;4.07;;
35909;SDS011;22004;49.120;-0.200;2023-05-10T09:17:09;19.23;;;3.25;;
35909;SDS011;22004;49.120;-0.200;2023-05-10T09:19:35;26.02;;;4.18;;
35909;SDS011;22004;49.120;-0.200;2023-05-10T09:22:00;15.50;;;3.10;;
35909;SDS011;22004;49.120;-0.200;2023-05-10T09:24:27;22.02;;;3.83;;
35909;SDS011;22004;49.120;-0.200;2023-05-10T09:26:54;21.83;;;3.20;;
35909;SDS011;22004;49.120;-0.200;2023-05-10T09:29:22;24.13;;;3.83;;
35909;SDS011;22004;49.120;-0.200;2023-05-10T09:31:48;16.45;;;3.13;;
35909;SDS011;22004;49.120;-0.200;2023-05-10T09:34:20;20.30;;;3.10;;
35909;SDS011;22004;49.120;-0.200;2023-05-10T09:36:54;20.60;;;3.13;;
35909;SDS011;22004;49.120;-0.200;2023-05-10T09:39:29;18.98;;;3.22;;
35909;SDS011;22004;49.120;-0.200;2023-05-10T09:41:56;23.17;;;3.85;;
35909;SDS011;22004;49.120;-0.200;2023-05-10T09:44:23;17.20;;;3.15;;
35909;SDS011;22004;49.120;-0.200;2023-05-10T09:46:50;22.23;;;3.17;;
35909;SDS011;22004;49.120;-0.200;2023-05-10T09:49:17;17.75;;;3.00;;
35909;SDS011;22004;49.120;-0.200;2023-05-10T09:51:43;19.13;;;2.92;;
35909;SDS011;22004;49.120;-0.200;2023-05-10T09:54:12;22.15;;;3.42;;
35909;SDS011;22004;49.120;-0.200;2023-05-10T09:56:41;14.65;;;3.40;;
35909;SDS011;22004;49.120;-0.200;2023-05-10T09:59:09;16.58;;;3.00;;
35909;SDS011;22004;49.120;-0.200;2023-05-10T10:01:36;20.50;;;3.60;;
35909;SDS011;22004;49.120;-0.200;2023-05-10T10:04:05;17.88;;;2.80;;
35909;SDS011;22004;49.120;-0.200;2023-05-10T10:06:35;19.67;;;3.20;;
35909;SDS011;22004;49.120;-0.200;2023-05-10T10:09:03;16.67;;;2.97;;
35909;SDS011;22004;49.120;-0.200;2023-05-10T10:11:29;16.35;;;2.90;;
35909;SDS011;22004;49.120;-0.200;2023-05-10T10:13:54;20.98;;;3.10;;
35909;SDS011;22004;49.120;-0.200;2023-05-10T10:16:20;19.15;;;2.72;;
35909;SDS011;22004;49.120;-0.200;2023-05-10T10:18:46;11.02;;;2.67;;
35909;SDS011;22004;49.120;-0.200;2023-05-10T10:21:13;14.95;;;2.53;;
35909;SDS011;22004;49.120;-0.200;2023-05-10T10:23:39;20.63;;;2.83;;
35909;SDS011;22004;49.120;-0.200;2023-05-10T10:26:05;13.27;;;2.33;;
35909;SDS011;22004;49.120;-0.200;2023-05-10T10:28:35;17.83;;;3.20;;
35909;SDS011;22004;49.120;-0.200;2023-05-10T10:31:13;17.40;;;3.22;;
35909;SDS011;22004;49.120;-0.200;2023-05-10T10:34:10;20.85;;;3.22;;
35909;SDS011;22004;49.120;-0.200;2023-05-10T10:36:45;12.35;;;2.13;;
35909;SDS011;22004;49.120;-0.200;2023-05-10T10:39:12;11.82;;;2.35;;
35909;SDS011;22004;49.120;-0.200;2023-05-10T10:41:39;12.07;;;2.78;;
35909;SDS011;22004;49.120;-0.200;2023-05-10T10:52:22;12.48;;;2.20;;
35909;SDS011;22004;49.120;-0.200;2023-05-10T10:55:09;12.43;;;2.33;;
35909;SDS011;22004;49.120;-0.200;2023-05-10T10:57:42;11.38;;;2.08;;
35909;SDS011;22004;49.120;-0.200;2023-05-10T11:00:20;18.20;;;2.87;;
35909;SDS011;22004;49.120;-0.200;2023-05-10T11:02:47;15.77;;;2.78;;
35909;SDS011;22004;49.120;-0.200;2023-05-10T11:07:54;20.25;;;3.03;;
35909;SDS011;22004;49.120;-0.200;2023-05-10T11:10:21;16.88;;;2.70;;
35909;SDS011;22004;49.120;-0.200;2023-05-10T11:12:51;14.48;;;3.75;;
35909;SDS011;22004;49.120;-0.200;2023-05-10T11:15:36;18.13;;;3.30;;
35909;SDS011;22004;49.120;-0.200;2023-05-10T11:18:19;13.68;;;2.97;;
35909;SDS011;22004;49.120;-0.200;2023-05-10T11:21:04;17.05;;;2.80;;
35909;SDS011;22004;49.120;-0.200;2023-05-10T11:23:33;18.27;;;2.72;;
35909;SDS011;22004;49.120;-0.200;2023-05-10T11:26:13;15.52;;;2.70;;
35909;SDS011;22004;49.120;-0.200;2023-05-10T11:28:46;16.42;;;2.67;;
35909;SDS011;22004;49.120;-0.200;2023-05-10T11:31:13;21.63;;;3.20;;
35909;SDS011;22004;49.120;-0.200;2023-05-10T11:33:46;16.48;;;3.40;;
35909;SDS011;22004;49.120;-0.200;2023-05-10T11:36:13;17.92;;;3.50;;
35909;SDS011;22004;49.120;-0.200;2023-05-10T11:38:40;17.50;;;2.92;;
35909;SDS011;22004;49.120;-0.200;2023-05-10T11:41:05;20.75;;;3.40;;
35909;SDS011;22004;49.120;-0.200;2023-05-10T11:43:33;18.85;;;2.80;;
35909;SDS011;22004;49.120;-0.200;2023-05-10T11:45:59;12.35;;;2.72;;
35909;SDS011;22004;49.120;-0.200;2023-05-10T11:48:25;12.00;;;2.50;;
35909;SDS011;22004;49.120;-0.200;2023-05-10T11:50:50;12.82;;;2.53;;
35909;SDS011;22004;49.120;-0.200;2023-05-10T11:53:15;9.68;;;2.30;;
35909;SDS011;22004;49.120;-0.200;2023-05-10T11:55:41;11.55;;;2.10;;
35909;SDS011;22004;49.120;-0.200;2023-05-10T11:58:06;14.07;;;2.92;;
35909;SDS011;22004;49.120;-0.200;2023-05-10T12:00:31;10.18;;;2.17;;
35909;SDS011;22004;49.120;-0.200;2023-05-10T12:02:57;11.65;;;2.00;;
35909;SDS011;22004;49.120;-0.200;2023-05-10T12:05:23;9.73;;;2.00;;
35909;SDS011;22004;49.120;-0.200;2023-05-10T12:07:49;8.05;;;2.00;;
35909;SDS011;22004;49.120;-0.200;2023-05-10T12:10:14;10.70;;;2.03;;
35909;SDS011;22004;49.120;-0.200;2023-05-10T12:12:42;8.35;;;2.17;;
35909;SDS011;22004;49.120;-0.200;2023-05-10T12:22:39;9.13;;;1.83;;
35909;SDS011;22004;49.120;-0.200;2023-05-10T12:25:05;5.57;;;1.90;;
35909;SDS011;22004;49.120;-0.200;2023-05-10T12:27:32;6.47;;;1.85;;
35909;SDS011;22004;49.120;-0.200;2023-05-10T12:29:59;8.55;;;1.90;;
35909;SDS011;22004;49.120;-0.200;2023-05-10T12:32:37;7.20;;;2.13;;
35909;SDS011;22004;49.120;-0.200;2023-05-10T12:35:03;8.15;;;1.50;;
35909;SDS011;22004;49.120;-0.200;2023-05-10T12:37:29;6.45;;;1.20;;
35909;SDS011;22004;49.120;-0.200;2023-05-10T12:39:54;9.32;;;1.95;;
35909;SDS011;22004;49.120;-0.200;2023-05-10T12:42:19;9.20;;;1.92;;
35909;SDS011;22004;49.120;-0.200;2023-05-10T12:44:45;11.00;;;1.98;;
35909;SDS011;22004;49.120;-0.200;2023-05-10T12:47:11;11.30;;;2.45;;
35909;SDS011;22004;49.120;-0.200;2023-05-10T12:49:36;13.13;;;2.80;;
35909;SDS011;22004;49.120;-0.200;2023-05-10T12:52:01;13.70;;;2.42;;
35909;SDS011;22004;49.120;-0.200;2023-05-10T12:54:27;10.55;;;2.05;;
35909;SDS011;22004;49.120;-0.200;2023-05-10T12:56:52;8.95;;;2.25;;
35909;SDS011;22004;49.120;-0.200;2023-05-10T12:59:18;16.10;;;2.47;;
35909;SDS011;22004;49.120;-0.200;2023-05-10T13:01:43;9.30;;;2.50;;
35909;SDS011;22004;49.120;-0.200;2023-05-10T13:04:08;12.93;;;2.47;;
35909;SDS011;22004;49.120;-0.200;2023-05-10T13:06:34;14.68;;;2.58;;
35909;SDS011;22004;49.120;-0.200;2023-05-10T13:09:00;10.32;;;2.88;;
35909;SDS011;22004;49.120;-0.200;2023-05-10T13:11:25;16.08;;;2.55;;
35909;SDS011;22004;49.120;-0.200;2023-05-10T13:13:51;15.65;;;3.20;;
35909;SDS011;22004;49.120;-0.200;2023-05-10T13:16:16;13.13;;;2.55;;
35909;SDS011;22004;49.120;-0.200;2023-05-10T13:18:41;22.90;;;3.50;;
35909;SDS011;22004;49.120;-0.200;2023-05-10T13:21:07;15.13;;;3.13;;
35909;SDS011;22004;49.120;-0.200;2023-05-10T13:23:32;16.17;;;2.92;;
35909;SDS011;22004;49.120;-0.200;2023-05-10T13:25:58;11.63;;;2.75;;
35909;SDS011;22004;49.120;-0.200;2023-05-10T13:28:24;10.40;;;2.47;;
35909;SDS011;22004;49.120;-0.200;2023-05-10T13:30:51;9.35;;;2.42;;
35909;SDS011;22004;49.120;-0.200;2023-05-10T13:33:16;19.13;;;2.92;;
35909;SDS011;22004;49.120;-0.200;2023-05-10T13:35:41;12.35;;;2.45;;
35909;SDS011;22004;49.120;-0.200;2023-05-10T13:38:07;13.73;;;2.20;;
35909;SDS011;22004;49.120;-0.200;2023-05-10T13:40:32;9.75;;;2.13;;
35909;SDS011;22004;49.120;-0.200;2023-05-10T13:42:58;11.00;;;2.22;;
35909;SDS011;22004;49.120;-0.200;2023-05-10T13:45:24;14.57;;;2.70;;
35909;SDS011;22004;49.120;-0.200;2023-05-10T13:47:49;11.02;;;2.05;;
35909;SDS011;22004;49.120;-0.200;2023-05-10T13:50:14;10.60;;;2.25;;
35909;SDS011;22004;49.120;-0.200;2023-05-10T13:52:40;16.60;;;2.88;;
35909;SDS011;22004;49.120;-0.200;2023-05-10T13:55:05;13.27;;;2.40;;
35909;SDS011;22004;49.120;-0.200;2023-05-10T13:57:31;20.38;;;2.90;;
35909;SDS011;22004;49.120;-0.200;2023-05-10T13:59:56;12.93;;;3.47;;
35909;SDS011;22004;49.120;-0.200;2023-05-10T14:02:22;15.05;;;3.22;;
35909;SDS011;22004;49.120;-0.200;2023-05-10T14:04:47;10.73;;;2.28;;
35909;SDS011;22004;49.120;-0.200;2023-05-10T14:07:13;14.50;;;3.38;;
35909;SDS011;22004;49.120;-0.200;2023-05-10T14:09:38;14.85;;;2.85;;
35909;SDS011;22004;49.120;-0.200;2023-05-10T14:12:04;10.13;;;2.30;;
35909;SDS011;22004;49.120;-0.200;2023-05-10T14:14:29;9.43;;;2.70;;
35909;SDS011;22004;49.120;-0.200;2023-05-10T14:16:54;10.02;;;2.33;;
35909;SDS011;22004;49.120;-0.200;2023-05-10T14:19:20;15.35;;;3.00;;
35909;SDS011;22004;49.120;-0.200;2023-05-10T14:21:45;14.57;;;2.38;;
35909;SDS011;22004;49.120;-0.200;2023-05-10T14:24:10;13.63;;;2.58;;
35909;SDS011;22004;49.120;-0.200;2023-05-10T14:26:36;18.15;;;3.05;;
35909;SDS011;22004;49.120;-0.200;2023-05-10T14:29:01;16.63;;;2.47;;
35909;SDS011;22004;49.120;-0.200;2023-05-10T14:31:27;11.82;;;2.08;;
35909;SDS011;22004;49.120;-0.200;2023-05-10T14:33:53;11.73;;;2.25;;
35909;SDS011;22004;49.120;-0.200;2023-05-10T14:36:18;19.45;;;2.72;;
35909;SDS011;22004;49.120;-0.200;2023-05-10T14:38:44;16.52;;;3.05;;
35909;SDS011;22004;49.120;-0.200;2023-05-10T14:41:09;26.88;;;3.95;;
35909;SDS011;22004;49.120;-0.200;2023-05-10T14:43:38;22.48;;;4.45;;
35909;SDS011;22004;49.120;-0.200;2023-05-10T14:46:04;20.13;;;3.55;;
35909;SDS011;22004;49.120;-0.200;2023-05-10T14:48:29;17.45;;;3.25;;
35909;SDS011;22004;49.120;-0.200;2023-05-10T14:50:55;17.25;;;3.13;;
35909;SDS011;22004;49.120;-0.200;2023-05-10T14:53:20;14.25;;;2.58;;
35909;SDS011;22004;49.120;-0.200;2023-05-10T14:55:46;15.05;;;2.42;;
35909;SDS011;22004;49.120;-0.200;2023-05-10T14:58:11;13.43;;;2.55;;
35909;SDS011;22004;49.120;-0.200;2023-05-10T15:00:36;12.02;;;3.33;;